sensor_id;sensor_type;location;lat;lon;timestamp;pressure;altitude;pressure_sealevel;temperature;humidity
69239;BME280;56349;51.816;-0.026;2022-10-30T00:02:16;100839.36;;;23.34;42.25
69239;BME280;56349;51.816;-0.026;2022-10-30T00:04:41;100835.26;;;23.33;42.26
69239;BME280;56349;51.816;-0.026;2022-10-30T00:07:06;100828.15;;;23.31;42.27
69239;BME280;56349;51.816;-0.026;2022-10-30T00:09:31;100828.86;;;23.08;42.29
69239;BME280;56349;51.816;-0.026;2022-10-30T00:11:57;100841.44;;;23.06;42.32
69239;BME280;56349;51.816;-0.026;2022-10-30T00:14:22;100841.77;;;23.06;42.33
69239;BME280;56349;51.816;-0.026;2022-10-30T00:16:47;100842.76;;;23.28;42.33
69239;BME280;56349;51.816;-0.026;2022-10-30T00:19:12;100850.33;;;23.27;42.33
69239;BME280;56349;51.816;-0.026;2022-10-30T00:21:39;100856.50;;;23.26;42.33
69239;BME280;56349;51.816;-0.026;2022-10-30T00:24:05;100858.51;;;23.23;42.35
69239;BME280;56349;51.816;-0.026;2022-10-30T00:26:29;100865.51;;;23.22;42.37
69239;BME280;56349;51.816;-0.026;2022-10-30T00:28:55;100872.26;;;23.20;42.39
69239;BME280;56349;51.816;-0.026;2022-10-30T00:31:21;100869.82;;;23.19;42.40
69239;BME280;56349;51.816;-0.026;2022-10-30T00:33:48;100879.85;;;23.18;42.41
69239;BME280;56349;51.816;-0.026;2022-10-30T00:36:12;100883.11;;;23.20;42.39
69239;BME280;56349;51.816;-0.026;2022-10-30T00:38:37;100884.79;;;23.18;42.38
69239;BME280;56349;51.816;-0.026;2022-10-30T00:41:04;100881.83;;;23.16;42.40
69239;BME280;56349;51.816;-0.026;2022-10-30T00:43:32;100878.41;;;23.15;42.40
69239;BME280;56349;51.816;-0.026;2022-10-30T00:45:54;100869.55;;;23.14;42.41
69239;BME280;56349;51.816;-0.026;2022-10-30T00:48:21;100870.04;;;22.91;42.41
69239;BME280;56349;51.816;-0.026;2022-10-30T00:50:44;100864.97;;;23.12;42.41
69239;BME280;56349;51.816;-0.026;2022-10-30T00:53:11;100865.38;;;23.11;42.41
69239;BME280;56349;51.816;-0.026;2022-10-30T00:55:36;100857.32;;;23.12;42.41
69239;BME280;56349;51.816;-0.026;2022-10-30T00:58:01;100847.64;;;23.11;42.40
69239;BME280;56349;51.816;-0.026;2022-10-30T01:00:27;100841.61;;;23.10;42.41
69239;BME280;56349;51.816;-0.026;2022-10-30T01:02:52;100838.60;;;23.09;42.41
69239;BME280;56349;51.816;-0.026;2022-10-30T01:05:19;100834.89;;;23.08;42.41
69239;BME280;56349;51.816;-0.026;2022-10-30T01:07:43;100828.86;;;23.05;42.46
69239;BME280;56349;51.816;-0.026;2022-10-30T01:10:09;100822.08;;;23.05;42.46
69239;BME280;56349;51.816;-0.026;2022-10-30T01:12:33;100818.64;;;22.84;42.44
69239;BME280;56349;51.816;-0.026;2022-10-30T01:15:00;100824.75;;;23.06;42.43
69239;BME280;56349;51.816;-0.026;2022-10-30T01:17:40;100820.73;;;23.03;42.45
69239;BME280;56349;51.816;-0.026;2022-10-30T01:20:00;100815.86;;;23.03;42.45
69239;BME280;56349;51.816;-0.026;2022-10-30T01:22:28;100813.58;;;22.82;42.42
69239;BME280;56349;51.816;-0.026;2022-10-30T01:25:01;100816.89;;;22.83;42.41
69239;BME280;56349;51.816;-0.026;2022-10-30T01:27:17;100821.49;;;23.06;42.39
69239;BME280;56349;51.816;-0.026;2022-10-30T01:29:43;100823.90;;;23.06;42.38
69239;BME280;56349;51.816;-0.026;2022-10-30T01:32:11;100823.17;;;23.04;42.39
69239;BME280;56349;51.816;-0.026;2022-10-30T01:34:32;100819.20;;;23.03;42.41
69239;BME280;56349;51.816;-0.026;2022-10-30T01:36:58;100819.13;;;23.30;42.38
69239;BME280;56349;51.816;-0.026;2022-10-30T01:39:20;100812.79;;;23.03;42.38
69239;BME280;56349;51.816;-0.026;2022-10-30T01:41:42;100809.19;;;23.02;42.38
69239;BME280;56349;51.816;-0.026;2022-10-30T01:44:10;100807.51;;;23.01;42.38
69239;BME280;56349;51.816;-0.026;2022-10-30T01:46:44;100814.57;;;23.01;42.37
69239;BME280;56349;51.816;-0.026;2022-10-30T01:49:11;100815.16;;;22.99;42.39
69239;BME280;56349;51.816;-0.026;2022-10-30T01:51:36;100807.72;;;22.98;42.40
69239;BME280;56349;51.816;-0.026;2022-10-30T01:53:56;100815.35;;;22.97;42.41
69239;BME280;56349;51.816;-0.026;2022-10-30T01:56:24;100818.36;;;22.96;42.41
69239;BME280;56349;51.816;-0.026;2022-10-30T01:58:45;100825.84;;;22.95;42.42
69239;BME280;56349;51.816;-0.026;2022-10-30T02:01:06;100814.35;;;22.93;42.43
69239;BME280;56349;51.816;-0.026;2022-10-30T02:03:32;100813.26;;;22.95;42.41
69239;BME280;56349;51.816;-0.026;2022-10-30T02:05:58;100817.90;;;22.93;42.41
69239;BME280;56349;51.816;-0.026;2022-10-30T02:08:24;100805.20;;;22.91;42.43
69239;BME280;56349;51.816;-0.026;2022-10-30T02:10:51;100809.20;;;22.88;42.46
69239;BME280;56349;51.816;-0.026;2022-10-30T02:13:15;100806.53;;;22.86;42.47
69239;BME280;56349;51.816;-0.026;2022-10-30T02:15:42;100808.34;;;22.84;42.49
69239;BME280;56349;51.816;-0.026;2022-10-30T02:18:06;100814.10;;;22.84;42.50
69239;BME280;56349;51.816;-0.026;2022-10-30T02:20:31;100825.86;;;22.83;42.51
69239;BME280;56349;51.816;-0.026;2022-10-30T02:22:57;100820.91;;;22.82;42.54
69239;BME280;56349;51.816;-0.026;2022-10-30T02:25:21;100822.78;;;22.82;42.54
69239;BME280;56349;51.816;-0.026;2022-10-30T02:27:46;100819.06;;;23.08;42.52
69239;BME280;56349;51.816;-0.026;2022-10-30T02:30:13;100813.22;;;22.81;42.51
69239;BME280;56349;51.816;-0.026;2022-10-30T02:32:38;100806.27;;;22.81;42.52
69239;BME280;56349;51.816;-0.026;2022-10-30T02:35:05;100804.95;;;22.80;42.53
69239;BME280;56349;51.816;-0.026;2022-10-30T02:37:29;100811.19;;;22.80;42.53
69239;BME280;56349;51.816;-0.026;2022-10-30T02:39:55;100809.37;;;22.79;42.52
69239;BME280;56349;51.816;-0.026;2022-10-30T02:42:20;100807.17;;;22.79;42.50
69239;BME280;56349;51.816;-0.026;2022-10-30T02:44:45;100806.82;;;23.05;42.50
69239;BME280;56349;51.816;-0.026;2022-10-30T02:47:10;100813.55;;;22.78;42.53
69239;BME280;56349;51.816;-0.026;2022-10-30T02:49:36;100826.12;;;22.76;42.53
69239;BME280;56349;51.816;-0.026;2022-10-30T02:52:05;100827.26;;;22.75;42.55
69239;BME280;56349;51.816;-0.026;2022-10-30T02:54:28;100824.97;;;23.01;42.54
69239;BME280;56349;51.816;-0.026;2022-10-30T02:56:54;100818.35;;;22.75;42.53
69239;BME280;56349;51.816;-0.026;2022-10-30T02:59:21;100811.33;;;22.75;42.51
69239;BME280;56349;51.816;-0.026;2022-10-30T03:01:46;100810.65;;;22.73;42.53
69239;BME280;56349;51.816;-0.026;2022-10-30T03:04:12;100806.42;;;22.74;42.51
69239;BME280;56349;51.816;-0.026;2022-10-30T03:06:37;100794.04;;;22.98;42.53
69239;BME280;56349;51.816;-0.026;2022-10-30T03:09:03;100791.79;;;22.98;42.53
69239;BME280;56349;51.816;-0.026;2022-10-30T03:11:29;100790.51;;;22.70;42.51
69239;BME280;56349;51.816;-0.026;2022-10-30T03:13:54;100789.35;;;22.97;42.50
69239;BME280;56349;51.816;-0.026;2022-10-30T03:16:21;100794.19;;;22.96;42.50
69239;BME280;56349;51.816;-0.026;2022-10-30T03:18:46;100806.45;;;22.70;42.49
69239;BME280;56349;51.816;-0.026;2022-10-30T03:21:13;100809.29;;;22.95;42.50
69239;BME280;56349;51.816;-0.026;2022-10-30T03:23:36;100805.13;;;22.67;42.50
69239;BME280;56349;51.816;-0.026;2022-10-30T03:26:02;100801.09;;;23.16;42.50
69239;BME280;56349;51.816;-0.026;2022-10-30T03:28:29;100791.56;;;22.94;42.51
69239;BME280;56349;51.816;-0.026;2022-10-30T03:30:58;100788.74;;;22.68;42.59
69239;BME280;56349;51.816;-0.026;2022-10-30T03:33:18;100791.36;;;22.68;42.65
69239;BME280;56349;51.816;-0.026;2022-10-30T03:35:44;100792.52;;;22.74;42.70
69239;BME280;56349;51.816;-0.026;2022-10-30T03:38:09;100790.45;;;22.84;42.73
69239;BME280;56349;51.816;-0.026;2022-10-30T03:40:34;100791.20;;;22.99;42.68
69239;BME280;56349;51.816;-0.026;2022-10-30T03:42:59;100792.69;;;23.18;42.54
69239;BME280;56349;51.816;-0.026;2022-10-30T03:45:24;100801.06;;;23.40;42.37
69239;BME280;56349;51.816;-0.026;2022-10-30T03:47:51;100799.27;;;23.42;42.10
69239;BME280;56349;51.816;-0.026;2022-10-30T03:50:16;100804.31;;;23.64;41.82
69239;BME280;56349;51.816;-0.026;2022-10-30T03:52:42;100807.13;;;23.56;41.52
69239;BME280;56349;51.816;-0.026;2022-10-30T03:55:08;100811.15;;;23.74;41.19
69239;BME280;56349;51.816;-0.026;2022-10-30T03:57:35;100807.53;;;23.85;40.91
69239;BME280;56349;51.816;-0.026;2022-10-30T03:59:59;100813.35;;;23.90;40.68
69239;BME280;56349;51.816;-0.026;2022-10-30T04:02:25;100820.03;;;23.92;40.54
69239;BME280;56349;51.816;-0.026;2022-10-30T04:04:51;100821.13;;;23.89;40.46
69239;BME280;56349;51.816;-0.026;2022-10-30T04:07:18;100818.17;;;23.84;40.42
69239;BME280;56349;51.816;-0.026;2022-10-30T04:09:44;100820.28;;;23.78;40.39
69239;BME280;56349;51.816;-0.026;2022-10-30T04:12:10;100811.51;;;23.70;40.41
69239;BME280;56349;51.816;-0.026;2022-10-30T04:14:36;100805.03;;;23.90;40.43
69239;BME280;56349;51.816;-0.026;2022-10-30T04:17:02;100800.05;;;23.54;40.48
69239;BME280;56349;51.816;-0.026;2022-10-30T04:19:27;100792.88;;;23.72;40.51
69239;BME280;56349;51.816;-0.026;2022-10-30T04:21:53;100790.15;;;23.87;40.56
69239;BME280;56349;51.816;-0.026;2022-10-30T04:24:18;100789.81;;;23.58;40.62
69239;BME280;56349;51.816;-0.026;2022-10-30T04:26:44;100786.29;;;23.72;40.69
69239;BME280;56349;51.816;-0.026;2022-10-30T04:29:11;100789.01;;;23.42;40.76
69239;BME280;56349;51.816;-0.026;2022-10-30T04:31:37;100783.17;;;23.57;40.81
69239;BME280;56349;51.816;-0.026;2022-10-30T04:34:02;100782.35;;;23.51;40.88
69239;BME280;56349;51.816;-0.026;2022-10-30T04:36:28;100779.22;;;23.44;40.95
69239;BME280;56349;51.816;-0.026;2022-10-30T04:38:53;100779.10;;;23.37;41.03
69239;BME280;56349;51.816;-0.026;2022-10-30T04:41:19;100780.64;;;23.31;41.11
69239;BME280;56349;51.816;-0.026;2022-10-30T04:43:47;100785.94;;;23.26;41.16
69239;BME280;56349;51.816;-0.026;2022-10-30T04:46:11;100791.19;;;23.23;41.22
69239;BME280;56349;51.816;-0.026;2022-10-30T04:48:37;100790.74;;;23.17;41.27
69239;BME280;56349;51.816;-0.026;2022-10-30T04:51:03;100788.17;;;23.11;41.34
69239;BME280;56349;51.816;-0.026;2022-10-30T04:53:28;100781.77;;;22.59;41.40
69239;BME280;56349;51.816;-0.026;2022-10-30T04:55:54;100787.66;;;23.06;41.44
69239;BME280;56349;51.816;-0.026;2022-10-30T04:58:21;100792.03;;;23.02;41.47
69239;BME280;56349;51.816;-0.026;2022-10-30T05:00:46;100782.61;;;22.98;41.51
69239;BME280;56349;51.816;-0.026;2022-10-30T05:03:18;100775.00;;;22.96;41.54
69239;BME280;56349;51.816;-0.026;2022-10-30T05:05:37;100775.67;;;22.92;41.57
69239;BME280;56349;51.816;-0.026;2022-10-30T05:08:04;100775.71;;;22.88;41.62
69239;BME280;56349;51.816;-0.026;2022-10-30T05:10:29;100772.34;;;22.84;41.67
69239;BME280;56349;51.816;-0.026;2022-10-30T05:12:55;100765.62;;;22.80;41.72
69239;BME280;56349;51.816;-0.026;2022-10-30T05:15:20;100760.69;;;23.04;41.77
69239;BME280;56349;51.816;-0.026;2022-10-30T05:17:50;100771.33;;;22.76;41.79
69239;BME280;56349;51.816;-0.026;2022-10-30T05:20:11;100768.15;;;22.74;41.80
69239;BME280;56349;51.816;-0.026;2022-10-30T05:22:36;100768.46;;;22.75;41.79
69239;BME280;56349;51.816;-0.026;2022-10-30T05:25:01;100767.93;;;22.73;41.81
69239;BME280;56349;51.816;-0.026;2022-10-30T05:27:27;100772.95;;;22.70;41.85
69239;BME280;56349;51.816;-0.026;2022-10-30T05:29:52;100781.10;;;22.69;41.86
69239;BME280;56349;51.816;-0.026;2022-10-30T05:32:18;100773.75;;;22.93;41.89
69239;BME280;56349;51.816;-0.026;2022-10-30T05:34:44;100765.11;;;22.62;41.95
69239;BME280;56349;51.816;-0.026;2022-10-30T05:37:08;100767.83;;;22.61;41.95
69239;BME280;56349;51.816;-0.026;2022-10-30T05:39:33;100778.39;;;22.86;41.98
69239;BME280;56349;51.816;-0.026;2022-10-30T05:41:58;100781.41;;;22.58;42.00
69239;BME280;56349;51.816;-0.026;2022-10-30T05:44:24;100784.85;;;22.83;42.00
69239;BME280;56349;51.816;-0.026;2022-10-30T05:46:49;100780.06;;;22.82;42.03
69239;BME280;56349;51.816;-0.026;2022-10-30T05:49:16;100774.10;;;22.53;42.06
69239;BME280;56349;51.816;-0.026;2022-10-30T05:51:41;100778.81;;;22.99;42.11
69239;BME280;56349;51.816;-0.026;2022-10-30T05:54:06;100779.56;;;22.48;42.14
69239;BME280;56349;51.816;-0.026;2022-10-30T05:56:31;100779.93;;;22.47;42.17
69239;BME280;56349;51.816;-0.026;2022-10-30T05:58:57;100783.63;;;22.45;42.19
69239;BME280;56349;51.816;-0.026;2022-10-30T06:01:22;100783.16;;;22.43;42.22
69239;BME280;56349;51.816;-0.026;2022-10-30T06:03:47;100785.90;;;22.43;42.23
69239;BME280;56349;51.816;-0.026;2022-10-30T06:06:13;100785.28;;;22.68;42.24
69239;BME280;56349;51.816;-0.026;2022-10-30T06:08:39;100787.84;;;22.40;42.27
69239;BME280;56349;51.816;-0.026;2022-10-30T06:11:05;100787.09;;;22.38;42.30
69239;BME280;56349;51.816;-0.026;2022-10-30T06:13:32;100784.09;;;22.85;42.31
69239;BME280;56349;51.816;-0.026;2022-10-30T06:15:57;100789.61;;;22.84;42.34
69239;BME280;56349;51.816;-0.026;2022-10-30T06:18:22;100792.69;;;22.64;42.31
69239;BME280;56349;51.816;-0.026;2022-10-30T06:20:48;100791.70;;;22.63;42.33
69239;BME280;56349;51.816;-0.026;2022-10-30T06:23:13;100796.51;;;22.32;42.40
69239;BME280;56349;51.816;-0.026;2022-10-30T06:25:38;100793.78;;;22.80;42.41
69239;BME280;56349;51.816;-0.026;2022-10-30T06:28:04;100794.14;;;22.57;42.43
69239;BME280;56349;51.816;-0.026;2022-10-30T06:30:30;100796.64;;;22.29;42.44
69239;BME280;56349;51.816;-0.026;2022-10-30T06:32:56;100795.87;;;22.55;42.45
69239;BME280;56349;51.816;-0.026;2022-10-30T06:35:20;100798.49;;;22.27;42.48
69239;BME280;56349;51.816;-0.026;2022-10-30T06:37:47;100803.41;;;22.75;42.48
69239;BME280;56349;51.816;-0.026;2022-10-30T06:40:12;100813.25;;;22.73;42.51
69239;BME280;56349;51.816;-0.026;2022-10-30T06:42:41;100812.53;;;22.72;42.54
69239;BME280;56349;51.816;-0.026;2022-10-30T06:45:03;100810.04;;;22.69;42.56
69239;BME280;56349;51.816;-0.026;2022-10-30T06:47:33;100807.54;;;22.69;42.58
69239;BME280;56349;51.816;-0.026;2022-10-30T06:49:54;100808.09;;;22.68;42.60
69239;BME280;56349;51.816;-0.026;2022-10-30T06:52:20;100812.17;;;22.46;42.60
69239;BME280;56349;51.816;-0.026;2022-10-30T06:54:46;100815.75;;;22.20;42.60
69239;BME280;56349;51.816;-0.026;2022-10-30T06:57:13;100809.06;;;22.44;42.60
69239;BME280;56349;51.816;-0.026;2022-10-30T06:59:38;100807.88;;;22.43;42.63
69239;BME280;56349;51.816;-0.026;2022-10-30T07:02:03;100810.92;;;22.15;42.64
69239;BME280;56349;51.816;-0.026;2022-10-30T07:04:28;100810.12;;;22.63;42.66
69239;BME280;56349;51.816;-0.026;2022-10-30T07:06:53;100811.35;;;22.64;42.64
69239;BME280;56349;51.816;-0.026;2022-10-30T07:09:19;100810.92;;;22.62;42.66
69239;BME280;56349;51.816;-0.026;2022-10-30T07:11:45;100810.17;;;22.39;42.68
69239;BME280;56349;51.816;-0.026;2022-10-30T07:14:12;100813.75;;;22.39;42.68
69239;BME280;56349;51.816;-0.026;2022-10-30T07:16:39;100814.77;;;22.39;42.71
69239;BME280;56349;51.816;-0.026;2022-10-30T07:19:04;100819.85;;;22.14;42.74
69239;BME280;56349;51.816;-0.026;2022-10-30T07:21:30;100828.68;;;22.16;42.76
69239;BME280;56349;51.816;-0.026;2022-10-30T07:23:53;100832.50;;;22.44;42.77
69239;BME280;56349;51.816;-0.026;2022-10-30T07:26:22;100837.63;;;22.44;42.83
69239;BME280;56349;51.816;-0.026;2022-10-30T07:28:48;100834.17;;;22.20;42.86
69239;BME280;56349;51.816;-0.026;2022-10-30T07:31:14;100836.50;;;22.48;42.89
69239;BME280;56349;51.816;-0.026;2022-10-30T07:33:39;100839.96;;;22.52;42.97
69239;BME280;56349;51.816;-0.026;2022-10-30T07:36:05;100847.69;;;22.33;43.09
69239;BME280;56349;51.816;-0.026;2022-10-30T07:38:30;100854.88;;;22.48;43.20
69239;BME280;56349;51.816;-0.026;2022-10-30T07:40:57;100854.67;;;22.66;43.22
69239;BME280;56349;51.816;-0.026;2022-10-30T07:43:21;100853.98;;;22.68;43.16
69239;BME280;56349;51.816;-0.026;2022-10-30T07:45:45;100851.65;;;23.17;43.07
69239;BME280;56349;51.816;-0.026;2022-10-30T07:48:16;100843.87;;;23.46;42.79
69239;BME280;56349;51.816;-0.026;2022-10-30T07:50:40;100836.83;;;23.53;42.53
69239;BME280;56349;51.816;-0.026;2022-10-30T07:53:04;100830.07;;;23.83;42.16
69239;BME280;56349;51.816;-0.026;2022-10-30T07:55:28;100828.75;;;23.87;41.73
69239;BME280;56349;51.816;-0.026;2022-10-30T07:57:53;100834.54;;;24.18;41.33
69239;BME280;56349;51.816;-0.026;2022-10-30T08:00:19;100834.60;;;24.48;41.09
69239;BME280;56349;51.816;-0.026;2022-10-30T08:02:50;100836.07;;;24.57;40.72
69239;BME280;56349;51.816;-0.026;2022-10-30T08:05:09;100833.67;;;24.62;40.28
69239;BME280;56349;51.816;-0.026;2022-10-30T08:07:36;100830.99;;;24.86;39.91
69239;BME280;56349;51.816;-0.026;2022-10-30T08:10:02;100839.72;;;25.09;39.56
69239;BME280;56349;51.816;-0.026;2022-10-30T08:12:27;100837.80;;;25.03;39.23
69239;BME280;56349;51.816;-0.026;2022-10-30T08:14:53;100835.04;;;25.49;38.91
69239;BME280;56349;51.816;-0.026;2022-10-30T08:17:18;100827.59;;;25.41;38.61
69239;BME280;56349;51.816;-0.026;2022-10-30T08:19:44;100828.10;;;25.37;38.29
69239;BME280;56349;51.816;-0.026;2022-10-30T08:22:10;100828.43;;;25.53;38.04
69239;BME280;56349;51.816;-0.026;2022-10-30T08:24:35;100824.08;;;25.66;37.80
69239;BME280;56349;51.816;-0.026;2022-10-30T08:27:02;100816.04;;;26.03;37.56
69239;BME280;56349;51.816;-0.026;2022-10-30T08:29:27;100807.61;;;25.97;37.31
69239;BME280;56349;51.816;-0.026;2022-10-30T08:31:54;100804.71;;;26.08;37.16
69239;BME280;56349;51.816;-0.026;2022-10-30T08:34:19;100807.60;;;26.01;37.00
69239;BME280;56349;51.816;-0.026;2022-10-30T08:36:47;100822.01;;;26.17;36.81
69239;BME280;56349;51.816;-0.026;2022-10-30T08:39:10;100825.61;;;26.34;36.63
69239;BME280;56349;51.816;-0.026;2022-10-30T08:41:35;100820.75;;;26.18;36.51
69239;BME280;56349;51.816;-0.026;2022-10-30T08:44:01;100827.11;;;26.19;36.50
69239;BME280;56349;51.816;-0.026;2022-10-30T08:46:27;100825.14;;;26.46;36.43
69239;BME280;56349;51.816;-0.026;2022-10-30T08:48:55;100823.85;;;26.71;36.23
69239;BME280;56349;51.816;-0.026;2022-10-30T08:51:18;100827.46;;;26.27;36.07
69239;BME280;56349;51.816;-0.026;2022-10-30T08:53:47;100828.51;;;26.32;35.91
69239;BME280;56349;51.816;-0.026;2022-10-30T08:56:14;100823.26;;;26.34;35.80
69239;BME280;56349;51.816;-0.026;2022-10-30T08:58:37;100819.87;;;26.40;35.64
69239;BME280;56349;51.816;-0.026;2022-10-30T09:01:03;100816.23;;;26.43;35.54
69239;BME280;56349;51.816;-0.026;2022-10-30T09:03:27;100809.01;;;26.46;35.44
69239;BME280;56349;51.816;-0.026;2022-10-30T09:05:52;100804.91;;;26.52;35.31
69239;BME280;56349;51.816;-0.026;2022-10-30T09:08:17;100805.03;;;26.55;35.21
69239;BME280;56349;51.816;-0.026;2022-10-30T09:10:43;100809.98;;;26.35;35.13
69239;BME280;56349;51.816;-0.026;2022-10-30T09:13:09;100810.64;;;26.59;35.07
69239;BME280;56349;51.816;-0.026;2022-10-30T09:15:35;100809.98;;;26.59;35.00
69239;BME280;56349;51.816;-0.026;2022-10-30T09:18:02;100808.93;;;26.59;34.95
69239;BME280;56349;51.816;-0.026;2022-10-30T09:20:27;100819.61;;;26.60;34.94
69239;BME280;56349;51.816;-0.026;2022-10-30T09:22:51;100819.15;;;26.63;34.91
69239;BME280;56349;51.816;-0.026;2022-10-30T09:25:17;100815.67;;;26.67;34.89
69239;BME280;56349;51.816;-0.026;2022-10-30T09:27:42;100799.68;;;26.68;34.78
69239;BME280;56349;51.816;-0.026;2022-10-30T09:30:08;100794.74;;;26.68;34.70
69239;BME280;56349;51.816;-0.026;2022-10-30T09:32:34;100792.46;;;26.69;34.63
69239;BME280;56349;51.816;-0.026;2022-10-30T09:34:59;100791.27;;;26.68;34.59
69239;BME280;56349;51.816;-0.026;2022-10-30T09:37:25;100755.54;;;26.69;34.58
69239;BME280;56349;51.816;-0.026;2022-10-30T09:39:50;100728.39;;;26.66;34.66
69239;BME280;56349;51.816;-0.026;2022-10-30T09:44:50;100785.51;;;26.72;34.64
69239;BME280;56349;51.816;-0.026;2022-10-30T09:47:15;100804.89;;;26.75;34.58
69239;BME280;56349;51.816;-0.026;2022-10-30T09:49:43;100824.83;;;26.78;34.53
69239;BME280;56349;51.816;-0.026;2022-10-30T09:52:07;100847.67;;;26.58;34.48
69239;BME280;56349;51.816;-0.026;2022-10-30T09:54:29;100859.64;;;26.82;34.42
69239;BME280;56349;51.816;-0.026;2022-10-30T09:56:53;100858.74;;;26.84;34.40
69239;BME280;56349;51.816;-0.026;2022-10-30T09:59:25;100851.88;;;26.82;34.37
69239;BME280;56349;51.816;-0.026;2022-10-30T10:01:48;100846.33;;;26.82;34.34
69239;BME280;56349;51.816;-0.026;2022-10-30T10:04:14;100845.84;;;26.84;34.27
69239;BME280;56349;51.816;-0.026;2022-10-30T10:06:33;100813.70;;;26.85;34.24
69239;BME280;56349;51.816;-0.026;2022-10-30T10:09:01;100801.72;;;26.85;34.21
69239;BME280;56349;51.816;-0.026;2022-10-30T10:11:26;100803.71;;;26.85;34.18
69239;BME280;56349;51.816;-0.026;2022-10-30T10:13:50;100811.96;;;26.86;34.15
69239;BME280;56349;51.816;-0.026;2022-10-30T10:16:16;100820.45;;;26.66;34.13
69239;BME280;56349;51.816;-0.026;2022-10-30T10:18:44;100829.33;;;26.87;34.13
69239;BME280;56349;51.816;-0.026;2022-10-30T10:21:10;100819.56;;;26.87;34.10
69239;BME280;56349;51.816;-0.026;2022-10-30T10:23:34;100818.76;;;26.87;34.08
69239;BME280;56349;51.816;-0.026;2022-10-30T10:25:58;100824.42;;;26.86;34.08
69239;BME280;56349;51.816;-0.026;2022-10-30T10:28:34;100827.20;;;26.86;34.05
69239;BME280;56349;51.816;-0.026;2022-10-30T10:30:54;100821.38;;;26.85;34.03
69239;BME280;56349;51.816;-0.026;2022-10-30T10:33:21;100825.88;;;26.84;34.03
69239;BME280;56349;51.816;-0.026;2022-10-30T10:35:50;100823.30;;;26.84;33.99
69239;BME280;56349;51.816;-0.026;2022-10-30T10:38:12;100824.80;;;26.85;33.92
69239;BME280;56349;51.816;-0.026;2022-10-30T10:40:39;100830.45;;;26.56;33.90
69239;BME280;56349;51.816;-0.026;2022-10-30T10:43:07;100834.07;;;26.67;33.89
69239;BME280;56349;51.816;-0.026;2022-10-30T10:45:28;100834.78;;;26.53;33.92
69239;BME280;56349;51.816;-0.026;2022-10-30T10:48:02;100834.30;;;26.34;34.02
69239;BME280;56349;51.816;-0.026;2022-10-30T10:50:19;100842.05;;;26.39;34.17
69239;BME280;56349;51.816;-0.026;2022-10-30T10:52:41;100842.71;;;25.89;34.31
69239;BME280;56349;51.816;-0.026;2022-10-30T10:55:09;100830.81;;;25.92;34.51
69239;BME280;56349;51.816;-0.026;2022-10-30T10:57:33;100829.99;;;25.88;34.71
69239;BME280;56349;51.816;-0.026;2022-10-30T11:00:00;100823.80;;;25.63;34.96
69239;BME280;56349;51.816;-0.026;2022-10-30T11:02:30;100822.78;;;25.36;35.21
69239;BME280;56349;51.816;-0.026;2022-10-30T11:04:52;100836.04;;;25.35;35.43
69239;BME280;56349;51.816;-0.026;2022-10-30T11:07:19;100840.22;;;25.39;35.68
69239;BME280;56349;51.816;-0.026;2022-10-30T11:09:39;100842.53;;;25.17;35.92
69239;BME280;56349;51.816;-0.026;2022-10-30T11:12:05;100838.06;;;25.00;36.12
69239;BME280;56349;51.816;-0.026;2022-10-30T11:14:30;100842.53;;;24.82;36.32
69239;BME280;56349;51.816;-0.026;2022-10-30T11:17:02;100837.31;;;24.62;36.55
69239;BME280;56349;51.816;-0.026;2022-10-30T11:19:21;100837.99;;;24.65;36.82
69239;BME280;56349;51.816;-0.026;2022-10-30T11:21:50;100844.25;;;24.72;37.00
69239;BME280;56349;51.816;-0.026;2022-10-30T11:26:37;100836.34;;;24.37;37.46
69239;BME280;56349;51.816;-0.026;2022-10-30T11:29:10;100828.07;;;24.21;37.66
69239;BME280;56349;51.816;-0.026;2022-10-30T11:31:29;100835.58;;;24.31;37.87
69239;BME280;56349;51.816;-0.026;2022-10-30T11:33:53;100832.64;;;24.19;38.05
69239;BME280;56349;51.816;-0.026;2022-10-30T11:36:22;100831.40;;;24.08;38.22
69239;BME280;56349;51.816;-0.026;2022-10-30T11:38:45;100841.08;;;23.70;38.40
69239;BME280;56349;51.816;-0.026;2022-10-30T11:41:11;100830.71;;;23.86;38.53
69239;BME280;56349;51.816;-0.026;2022-10-30T11:43:37;100824.22;;;24.03;38.69
69239;BME280;56349;51.816;-0.026;2022-10-30T11:46:02;100829.79;;;23.78;38.74
69239;BME280;56349;51.816;-0.026;2022-10-30T11:48:29;100832.63;;;23.67;38.92
69239;BME280;56349;51.816;-0.026;2022-10-30T11:50:54;100828.56;;;23.35;39.05
69239;BME280;56349;51.816;-0.026;2022-10-30T11:53:21;100830.27;;;23.59;39.12
69239;BME280;56349;51.816;-0.026;2022-10-30T11:55:45;100835.55;;;23.78;39.28
69239;BME280;56349;51.816;-0.026;2022-10-30T11:58:20;100832.45;;;23.51;39.42
69239;BME280;56349;51.816;-0.026;2022-10-30T12:00:35;100820.92;;;23.48;39.49
69239;BME280;56349;51.816;-0.026;2022-10-30T12:03:01;100819.69;;;23.52;39.53
69239;BME280;56349;51.816;-0.026;2022-10-30T12:05:33;100819.61;;;23.57;39.60
69239;BME280;56349;51.816;-0.026;2022-10-30T12:07:52;100831.98;;;23.65;39.67
69239;BME280;56349;51.816;-0.026;2022-10-30T12:10:22;100820.32;;;23.52;39.66
69239;BME280;56349;51.816;-0.026;2022-10-30T12:12:43;100822.62;;;23.70;39.62
69239;BME280;56349;51.816;-0.026;2022-10-30T12:17:33;100824.32;;;24.13;39.32
69239;BME280;56349;51.816;-0.026;2022-10-30T12:20:00;100823.53;;;23.86;39.19
69239;BME280;56349;51.816;-0.026;2022-10-30T12:22:28;100827.93;;;24.48;38.99
69239;BME280;56349;51.816;-0.026;2022-10-30T12:24:54;100828.94;;;24.17;38.81
69239;BME280;56349;51.816;-0.026;2022-10-30T12:27:18;100831.78;;;24.54;38.60
69239;BME280;56349;51.816;-0.026;2022-10-30T12:29:53;100836.56;;;24.38;38.46
69239;BME280;56349;51.816;-0.026;2022-10-30T12:32:13;100829.31;;;24.39;38.37
69239;BME280;56349;51.816;-0.026;2022-10-30T12:34:39;100822.16;;;24.38;38.35
69239;BME280;56349;51.816;-0.026;2022-10-30T12:37:04;100816.95;;;24.56;38.37
69239;BME280;56349;51.816;-0.026;2022-10-30T12:39:27;100812.73;;;24.27;38.40